createdAt,value
2023-04-26T00:01:11.436Z,11.57
2023-04-26T00:03:40.865Z,13.00
2023-04-26T00:06:10.098Z,12.23
2023-04-26T00:08:38.042Z,12.73
2023-04-26T00:11:25.362Z,10.10
2023-04-26T00:14:52.530Z,9.35
2023-04-26T00:17:21.747Z,9.45
2023-04-26T00:19:49.807Z,22.63
2023-04-26T00:22:17.732Z,18.60
2023-04-26T00:24:45.595Z,13.50
2023-04-26T00:27:13.629Z,13.18
2023-04-26T00:29:41.476Z,14.73
2023-04-26T00:32:09.465Z,12.77
2023-04-26T00:34:39.452Z,14.65
2023-04-26T00:37:07.313Z,14.10
2023-04-26T00:39:35.148Z,12.25
2023-04-26T00:42:03.253Z,17.30
2023-04-26T00:44:31.046Z,13.52
2023-04-26T00:46:58.955Z,13.85
2023-04-26T00:49:27.157Z,15.35
2023-04-26T00:51:56.642Z,12.63
2023-04-26T00:54:25.809Z,15.95
2023-04-26T00:56:53.797Z,13.38
2023-04-26T00:59:22.330Z,13.05
2023-04-26T01:01:51.524Z,11.07
2023-04-26T01:04:19.642Z,15.32
2023-04-26T01:06:47.824Z,14.38
2023-04-26T01:09:19.128Z,11.20
2023-04-26T01:11:47.993Z,12.18
2023-04-26T01:14:16.614Z,12.38
2023-04-26T01:16:46.993Z,14.65
2023-04-26T01:19:15.246Z,12.68
2023-04-26T01:21:44.129Z,12.40
2023-04-26T01:24:14.682Z,13.63
2023-04-26T01:26:45.940Z,14.32
2023-04-26T01:29:17.772Z,10.40
2023-04-26T01:31:45.931Z,13.50
2023-04-26T01:34:14.165Z,15.13
2023-04-26T01:36:42.778Z,12.70
2023-04-26T01:39:10.608Z,9.20
2023-04-26T01:41:39.740Z,13.40
2023-04-26T01:44:07.796Z,10.82
2023-04-26T01:46:35.889Z,9.10
2023-04-26T01:49:03.861Z,10.25
2023-04-26T01:51:32.756Z,11.63
2023-04-26T01:54:00.609Z,14.23
2023-04-26T01:56:30.868Z,15.50
2023-04-26T01:59:00.113Z,13.13
2023-04-26T02:01:28.049Z,12.05
2023-04-26T02:03:56.072Z,11.25
2023-04-26T02:06:24.007Z,10.65
2023-04-26T02:08:52.106Z,13.90
2023-04-26T02:11:20.161Z,11.93
2023-04-26T02:13:47.969Z,11.48
2023-04-26T02:16:17.220Z,11.70
2023-04-26T02:18:45.471Z,13.60
2023-04-26T02:21:13.525Z,15.98
2023-04-26T02:23:41.426Z,15.82
2023-04-26T02:26:09.178Z,16.00
2023-04-26T02:28:37.341Z,14.57
2023-04-26T02:31:05.827Z,14.35
2023-04-26T02:33:35.305Z,19.05
2023-04-26T02:36:05.452Z,16.95
2023-04-26T02:38:35.082Z,22.88
2023-04-26T02:41:03.552Z,17.92
2023-04-26T02:43:31.501Z,20.95
2023-04-26T02:46:01.214Z,18.40
2023-04-26T02:48:29.164Z,18.67
2023-04-26T02:50:58.305Z,23.73
2023-04-26T02:53:26.179Z,20.05
2023-04-26T02:55:54.048Z,19.70
2023-04-26T02:58:22.152Z,20.02
2023-04-26T03:00:50.072Z,15.90
2023-04-26T03:03:18.160Z,13.73
2023-04-26T03:05:46.495Z,17.23
2023-04-26T03:08:19.437Z,14.70
2023-04-26T03:10:47.223Z,15.27
2023-04-26T03:13:15.254Z,14.90
2023-04-26T03:15:45.959Z,19.55
2023-04-26T03:18:13.983Z,22.98
2023-04-26T03:20:42.783Z,17.83
2023-04-26T03:23:10.557Z,17.23
2023-04-26T03:25:39.733Z,19.45
2023-04-26T03:28:07.672Z,20.50
2023-04-26T03:30:35.446Z,20.52
2023-04-26T03:33:03.294Z,16.00
2023-04-26T03:35:31.373Z,16.35
2023-04-26T03:37:59.162Z,19.42
2023-04-26T03:40:27.138Z,19.33
2023-04-26T03:42:56.251Z,19.13
2023-04-26T03:45:24.672Z,20.20
2023-04-26T03:47:52.451Z,18.15
2023-04-26T03:50:20.665Z,16.65
2023-04-26T03:52:48.357Z,18.38
2023-04-26T03:55:16.131Z,17.48
2023-04-26T03:57:44.278Z,16.88
2023-04-26T04:00:15.150Z,18.52
2023-04-26T04:02:43.461Z,17.38
2023-04-26T04:05:11.530Z,21.63
2023-04-26T04:07:39.389Z,17.98
2023-04-26T04:10:10.051Z,16.00
2023-04-26T04:12:37.911Z,18.35
2023-04-26T04:15:06.203Z,13.98
2023-04-26T04:17:37.592Z,15.82
2023-04-26T04:20:07.674Z,18.10
2023-04-26T04:22:36.204Z,17.20
2023-04-26T04:25:04.726Z,18.05
2023-04-26T04:27:32.558Z,20.35
2023-04-26T04:30:03.658Z,18.38
2023-04-26T04:32:32.919Z,19.67
2023-04-26T04:35:02.300Z,19.42
2023-04-26T04:37:33.112Z,19.88
2023-04-26T04:40:01.109Z,20.35
2023-04-26T04:42:29.441Z,18.58
2023-04-26T04:44:59.506Z,23.27
2023-04-26T04:47:27.314Z,24.05
2023-04-26T04:49:55.105Z,24.73
2023-04-26T04:52:24.287Z,22.70
2023-04-26T04:54:52.094Z,26.13
2023-04-26T04:57:20.179Z,28.88
2023-04-26T04:59:47.965Z,24.88
2023-04-26T05:02:15.876Z,27.13
2023-04-26T05:04:43.873Z,26.98
2023-04-26T05:07:12.851Z,27.80
2023-04-26T05:09:42.036Z,29.38
2023-04-26T05:12:09.908Z,27.30
2023-04-26T05:14:37.835Z,28.40
2023-04-26T05:17:05.642Z,22.90
2023-04-26T05:19:33.385Z,21.80
2023-04-26T05:22:01.133Z,21.52
2023-04-26T05:24:31.579Z,18.77
2023-04-26T05:27:01.186Z,21.25
2023-04-26T05:29:31.036Z,23.88
2023-04-26T05:31:58.889Z,18.70
2023-04-26T05:34:26.919Z,21.35
2023-04-26T05:36:54.753Z,28.33
2023-04-26T05:39:22.627Z,29.67
2023-04-26T05:41:50.984Z,26.90
2023-04-26T05:44:20.174Z,24.77
2023-04-26T05:46:48.018Z,26.15
2023-04-26T05:49:16.051Z,25.25
2023-04-26T05:51:43.859Z,21.60
2023-04-26T05:54:11.777Z,21.75
2023-04-26T05:56:39.509Z,25.38
2023-04-26T05:59:07.384Z,25.23
2023-04-26T06:01:36.534Z,31.88
2023-04-26T06:04:04.756Z,26.27
2023-04-26T06:06:33.133Z,24.33
2023-04-26T06:09:00.928Z,27.60
2023-04-26T06:11:28.982Z,26.80
2023-04-26T06:13:56.749Z,26.50
2023-04-26T06:16:24.680Z,32.75
2023-04-26T06:18:53.840Z,29.15
2023-04-26T06:21:21.602Z,34.45
2023-04-26T06:23:49.516Z,29.27
2023-04-26T06:26:17.368Z,30.75
2023-04-26T06:28:45.189Z,30.50
2023-04-26T06:31:13.268Z,30.48
2023-04-26T06:33:41.064Z,32.58
2023-04-26T06:36:14.127Z,32.67
2023-04-26T06:38:41.895Z,32.92
2023-04-26T06:41:09.732Z,29.80
2023-04-26T06:43:37.540Z,28.05
2023-04-26T06:46:05.578Z,28.08
2023-04-26T06:48:33.497Z,25.73
2023-04-26T06:51:06.658Z,25.25
2023-04-26T06:53:35.884Z,25.02
2023-04-26T06:56:03.746Z,23.80
2023-04-26T06:58:31.579Z,21.27
2023-04-26T07:00:59.400Z,20.75
2023-04-26T07:03:27.507Z,20.27
2023-04-26T07:05:56.840Z,20.60
2023-04-26T07:08:24.674Z,19.30
2023-04-26T07:10:55.384Z,22.48
2023-04-26T07:13:23.359Z,24.52
2023-04-26T07:15:51.874Z,22.77
2023-04-26T07:18:19.721Z,22.25
2023-04-26T07:20:47.569Z,23.17
2023-04-26T07:23:15.531Z,24.25
2023-04-26T07:25:43.401Z,22.98
2023-04-26T07:28:12.589Z,21.83
2023-04-26T07:30:40.374Z,24.80
2023-04-26T07:33:08.685Z,17.48
2023-04-26T07:35:36.732Z,21.95
2023-04-26T07:38:05.092Z,20.10
2023-04-26T07:40:32.882Z,24.88
2023-04-26T07:43:00.665Z,18.52
2023-04-26T07:45:29.856Z,17.65
2023-04-26T07:47:57.652Z,15.52
2023-04-26T07:50:25.729Z,19.63
2023-04-26T07:52:53.462Z,19.85
2023-04-26T07:55:21.728Z,16.73
2023-04-26T07:57:49.623Z,17.15
2023-04-26T08:00:19.002Z,17.42
2023-04-26T08:02:48.807Z,16.73
2023-04-26T08:05:17.988Z,21.88
2023-04-26T08:07:45.939Z,14.18
2023-04-26T08:10:13.732Z,14.77
2023-04-26T08:12:41.549Z,14.75
2023-04-26T08:15:10.365Z,14.30
2023-04-26T08:17:38.263Z,13.05
2023-04-26T08:20:09.745Z,13.52
2023-04-26T08:22:37.965Z,10.13
2023-04-26T08:25:06.711Z,12.50
2023-04-26T08:27:36.046Z,15.85
2023-04-26T08:30:04.037Z,13.75
2023-04-26T08:32:33.968Z,15.32
2023-04-26T08:35:01.892Z,15.20
2023-04-26T08:37:31.329Z,19.85
2023-04-26T08:39:59.174Z,14.38
2023-04-26T08:42:28.643Z,10.60
2023-04-26T08:44:56.466Z,10.95
2023-04-26T08:47:31.920Z,12.35
2023-04-26T08:50:02.712Z,13.68
2023-04-26T08:52:33.312Z,12.93
2023-04-26T08:55:01.933Z,14.85
2023-04-26T08:57:33.887Z,12.80
2023-04-26T09:02:34.131Z,11.93
2023-04-26T09:05:02.352Z,14.93
2023-04-26T09:07:42.994Z,12.65
2023-04-26T09:10:12.574Z,14.27
2023-04-26T09:12:41.279Z,8.88
2023-04-26T09:15:10.415Z,10.52
2023-04-26T09:17:39.520Z,10.20
2023-04-26T09:20:21.291Z,10.32
2023-04-26T09:22:51.969Z,10.40
2023-04-26T09:25:22.130Z,9.05
2023-04-26T09:30:21.097Z,8.30
2023-04-26T09:32:52.214Z,14.90
2023-04-26T09:35:29.104Z,6.95
2023-04-26T09:38:04.240Z,10.55
2023-04-26T09:40:36.998Z,8.52
2023-04-26T09:43:15.299Z,7.65
2023-04-26T09:45:50.002Z,8.82
2023-04-26T09:48:22.086Z,6.90
2023-04-26T09:50:52.433Z,8.52
2023-04-26T09:53:30.957Z,8.38
2023-04-26T09:56:08.009Z,7.15
2023-04-26T09:58:38.125Z,11.05
2023-04-26T10:01:06.953Z,7.63
2023-04-26T10:03:36.143Z,6.43
2023-04-26T10:06:04.930Z,7.10
2023-04-26T10:08:34.254Z,5.05
2023-04-26T10:11:04.498Z,7.65
2023-04-26T10:13:33.527Z,7.60
2023-04-26T10:16:02.656Z,5.55
2023-04-26T10:18:31.467Z,9.15
2023-04-26T10:21:03.672Z,6.57
2023-04-26T10:23:33.366Z,12.57
2023-04-26T10:26:02.889Z,7.38
2023-04-26T10:29:00.825Z,5.78
2023-04-26T10:32:04.104Z,7.18
2023-04-26T10:34:33.698Z,4.47
2023-04-26T10:37:09.419Z,4.70
2023-04-26T10:39:37.785Z,4.72
2023-04-26T10:42:27.589Z,8.95
2023-04-26T10:44:56.493Z,5.47
2023-04-26T10:47:26.915Z,6.25
2023-04-26T10:50:05.523Z,7.18
2023-04-26T10:52:34.805Z,7.10
2023-04-26T10:55:02.976Z,5.40
2023-04-26T10:57:52.846Z,4.55
2023-04-26T11:00:32.722Z,3.28
2023-04-26T11:03:05.421Z,4.50
2023-04-26T11:05:39.063Z,5.78
2023-04-26T11:08:09.464Z,4.93
2023-04-26T11:10:41.073Z,5.05
2023-04-26T11:13:10.662Z,5.45
2023-04-26T11:15:40.081Z,6.32
2023-04-26T11:18:08.269Z,6.55
2023-04-26T11:20:36.585Z,4.18
2023-04-26T11:23:04.764Z,5.88
2023-04-26T11:25:32.829Z,5.68
2023-04-26T11:28:02.325Z,4.95
2023-04-26T11:30:32.826Z,6.05
2023-04-26T11:33:00.749Z,4.63
2023-04-26T11:35:29.900Z,4.85
2023-04-26T11:38:00.984Z,7.22
2023-04-26T11:40:30.122Z,3.03
2023-04-26T11:43:01.341Z,6.72
2023-04-26T11:45:29.376Z,6.55
2023-04-26T11:47:59.179Z,4.32
2023-04-26T11:50:27.844Z,6.78
2023-04-26T11:52:56.866Z,6.32
2023-04-26T11:55:30.756Z,4.80
2023-04-26T11:57:59.153Z,7.18
2023-04-26T12:00:27.676Z,5.53
2023-04-26T12:02:57.547Z,5.15
2023-04-26T12:05:30.716Z,4.50
2023-04-26T12:08:00.635Z,4.45
2023-04-26T12:10:29.726Z,12.40
2023-04-26T12:13:00.619Z,8.48
2023-04-26T12:15:32.562Z,9.98
2023-04-26T12:20:34.933Z,4.95
2023-04-26T12:23:05.900Z,4.82
2023-04-26T12:25:35.170Z,5.70
2023-04-26T12:28:04.498Z,4.75
2023-04-26T12:30:33.647Z,7.15
2023-04-26T12:33:15.608Z,5.63
2023-04-26T12:35:48.044Z,4.65
2023-04-26T12:38:16.077Z,9.55
2023-04-26T12:40:47.297Z,6.85
2023-04-26T12:43:15.921Z,6.57
2023-04-26T12:45:43.930Z,10.90
2023-04-26T12:48:12.306Z,5.35
2023-04-26T12:50:40.534Z,6.78
2023-04-26T12:53:11.062Z,5.03
2023-04-26T12:55:39.128Z,4.93
2023-04-26T12:58:07.089Z,7.75
2023-04-26T13:00:35.117Z,5.18
2023-04-26T13:03:03.228Z,5.65
2023-04-26T13:05:32.413Z,4.65
2023-04-26T13:08:02.195Z,4.57
2023-04-26T13:10:33.100Z,9.18
2023-04-26T13:13:01.436Z,4.10
2023-04-26T13:15:30.003Z,4.68
2023-04-26T13:17:58.126Z,4.90
2023-04-26T13:20:27.273Z,3.53
2023-04-26T13:22:56.875Z,8.77
2023-04-26T13:25:24.789Z,4.35
2023-04-26T13:27:55.515Z,5.70
2023-04-26T13:30:23.538Z,4.67
2023-04-26T13:32:51.881Z,6.07
2023-04-26T13:35:20.208Z,8.63
2023-04-26T13:37:48.278Z,4.82
2023-04-26T13:40:17.088Z,5.30
2023-04-26T13:42:45.024Z,4.35
2023-04-26T13:45:14.761Z,7.43
2023-04-26T13:47:43.124Z,8.88
2023-04-26T13:50:11.793Z,6.53
2023-04-26T13:52:39.650Z,6.85
2023-04-26T13:55:09.024Z,9.25
2023-04-26T13:57:36.936Z,4.72
2023-04-26T14:00:05.458Z,8.52
2023-04-26T14:02:34.923Z,6.22
2023-04-26T14:05:03.044Z,8.45
2023-04-26T14:07:30.929Z,5.85
2023-04-26T14:09:58.747Z,4.35
2023-04-26T14:12:26.525Z,5.30
2023-04-26T14:14:54.312Z,12.52
2023-04-26T14:17:22.121Z,6.97
2023-04-26T14:19:52.888Z,7.40
2023-04-26T14:24:49.497Z,5.93
2023-04-26T14:27:17.541Z,7.05
2023-04-26T14:29:45.441Z,8.43
2023-04-26T14:32:13.361Z,9.00
2023-04-26T14:34:41.995Z,6.68
2023-04-26T14:37:11.651Z,6.22
2023-04-26T14:39:39.708Z,6.78
2023-04-26T14:42:07.515Z,4.63
2023-04-26T14:44:36.507Z,7.32
2023-04-26T14:47:04.505Z,8.15
2023-04-26T14:49:32.704Z,6.93
2023-04-26T14:52:00.558Z,8.35
2023-04-26T14:54:29.911Z,9.85
2023-04-26T14:56:58.333Z,5.03
2023-04-26T14:59:26.284Z,6.82
2023-04-26T15:01:54.674Z,7.38
2023-04-26T15:04:22.777Z,8.75
2023-04-26T15:06:50.875Z,8.23
2023-04-26T15:09:18.838Z,5.70
2023-04-26T15:11:48.133Z,5.57
2023-04-26T15:14:15.910Z,11.02
2023-04-26T15:16:43.774Z,9.18
2023-04-26T15:19:11.875Z,8.27
2023-04-26T15:21:39.744Z,7.03
2023-04-26T15:24:08.814Z,5.35
2023-04-26T15:26:36.631Z,9.45
2023-04-26T15:29:05.773Z,6.03
2023-04-26T15:31:33.805Z,7.88
2023-04-26T15:34:02.382Z,6.00
2023-04-26T15:36:30.172Z,5.97
2023-04-26T15:38:58.134Z,9.55
2023-04-26T15:41:25.975Z,7.63
2023-04-26T15:43:55.341Z,6.65
2023-04-26T15:46:24.538Z,7.00
2023-04-26T15:48:52.410Z,5.60
2023-04-26T15:51:20.236Z,5.20
2023-04-26T15:53:48.054Z,6.65
2023-04-26T15:56:16.498Z,8.20
2023-04-26T15:58:45.109Z,5.82
2023-04-26T16:01:13.265Z,4.65
2023-04-26T16:03:45.736Z,5.00
2023-04-26T16:06:15.507Z,6.30
2023-04-26T16:08:43.385Z,4.55
2023-04-26T16:11:11.165Z,5.90
2023-04-26T16:13:39.138Z,8.18
2023-04-26T16:16:08.186Z,8.55
2023-04-26T16:18:36.174Z,6.68
2023-04-26T16:21:10.011Z,7.90
2023-04-26T16:23:38.571Z,6.32
2023-04-26T16:26:07.936Z,7.60
2023-04-26T16:28:35.888Z,7.22
2023-04-26T16:31:03.968Z,6.53
2023-04-26T16:33:31.898Z,8.25
2023-04-26T16:35:59.684Z,8.63
2023-04-26T16:38:28.886Z,6.53
2023-04-26T16:40:58.103Z,8.88
2023-04-26T16:43:26.833Z,7.93
2023-04-26T16:46:01.741Z,10.63
2023-04-26T16:48:31.674Z,6.90
2023-04-26T16:50:59.677Z,10.18
2023-04-26T16:53:28.935Z,7.35
2023-04-26T16:55:57.010Z,8.73
2023-04-26T16:58:25.196Z,6.25
2023-04-26T17:00:53.683Z,9.35
2023-04-26T17:03:21.840Z,8.32
2023-04-26T17:05:50.228Z,6.95
2023-04-26T17:08:19.369Z,6.82
2023-04-26T17:10:48.857Z,6.32
2023-04-26T17:13:16.854Z,9.27
2023-04-26T17:15:45.212Z,8.25
2023-04-26T17:18:13.103Z,8.20
2023-04-26T17:20:41.929Z,7.78
2023-04-26T17:23:10.086Z,11.52
2023-04-26T17:25:37.819Z,10.07
2023-04-26T17:28:07.011Z,6.30
2023-04-26T17:30:34.805Z,8.13
2023-04-26T17:33:02.884Z,8.18
2023-04-26T17:35:30.869Z,8.50
2023-04-26T17:37:58.616Z,7.47
2023-04-26T17:40:26.549Z,11.20
2023-04-26T17:42:54.347Z,5.95
2023-04-26T17:45:23.709Z,11.30
2023-04-26T17:47:51.571Z,24.52
2023-04-26T17:50:21.170Z,6.03
2023-04-26T17:52:49.009Z,6.45
2023-04-26T17:55:17.003Z,23.95
2023-04-26T17:57:44.777Z,13.75
2023-04-26T18:00:13.816Z,10.13
2023-04-26T18:02:44.168Z,6.15
2023-04-26T18:05:13.679Z,7.35
2023-04-26T18:07:41.895Z,7.13
2023-04-26T18:10:10.535Z,7.10
2023-04-26T18:12:38.323Z,6.30
2023-04-26T18:15:07.589Z,6.43
2023-04-26T18:17:35.376Z,8.70
2023-04-26T18:20:05.205Z,5.30
2023-04-26T18:22:33.035Z,6.47
2023-04-26T18:25:00.782Z,8.05
2023-04-26T18:27:28.605Z,9.10
2023-04-26T18:29:56.383Z,9.05
2023-04-26T18:32:24.292Z,9.77
2023-04-26T18:34:52.292Z,16.15
2023-04-26T18:37:21.507Z,8.35
2023-04-26T18:39:49.731Z,7.40
2023-04-26T18:42:17.553Z,7.28
2023-04-26T18:44:45.316Z,4.60
2023-04-26T18:47:13.084Z,7.88
2023-04-26T18:49:40.779Z,6.68
2023-04-26T18:52:09.923Z,6.90
2023-04-26T18:54:39.519Z,7.88
2023-04-26T18:57:07.255Z,11.13
2023-04-26T18:59:35.041Z,7.20
2023-04-26T19:02:04.292Z,6.53
2023-04-26T19:04:32.388Z,4.15
2023-04-26T19:07:01.255Z,5.93
2023-04-26T19:09:29.924Z,9.45
2023-04-26T19:12:00.512Z,8.40
2023-04-26T19:14:28.781Z,9.30
2023-04-26T19:16:57.267Z,8.18
2023-04-26T19:19:25.032Z,7.93
2023-04-26T19:21:52.953Z,10.60
2023-04-26T19:24:20.984Z,7.20
2023-04-26T19:26:48.747Z,10.55
2023-04-26T19:29:17.872Z,11.73
2023-04-26T19:31:45.752Z,5.97
2023-04-26T19:34:13.630Z,6.07
2023-04-26T19:36:41.902Z,4.85
2023-04-26T19:39:09.883Z,6.05
2023-04-26T19:41:37.932Z,8.27
2023-04-26T19:44:05.825Z,8.93
2023-04-26T19:46:35.097Z,5.65
2023-04-26T19:49:02.901Z,6.90
2023-04-26T19:51:31.664Z,11.20
2023-04-26T19:53:59.423Z,6.03
2023-04-26T19:56:27.384Z,13.63
2023-04-26T19:58:55.744Z,4.28
2023-04-26T20:01:23.961Z,8.95
2023-04-26T20:03:53.463Z,7.38
2023-04-26T20:06:21.400Z,5.70
2023-04-26T20:08:49.235Z,4.30
2023-04-26T20:11:17.567Z,4.55
2023-04-26T20:13:46.382Z,6.28
2023-04-26T20:16:14.229Z,4.22
2023-04-26T20:18:42.122Z,4.20
2023-04-26T20:21:11.218Z,4.60
2023-04-26T20:23:39.016Z,6.75
2023-04-26T20:26:06.808Z,5.50
2023-04-26T20:28:34.632Z,7.93
2023-04-26T20:31:02.582Z,11.32
2023-04-26T20:33:30.393Z,7.32
2023-04-26T20:35:58.119Z,7.80
2023-04-26T20:38:27.661Z,5.53
2023-04-26T20:40:55.666Z,5.78
2023-04-26T20:43:23.468Z,7.68
2023-04-26T20:45:51.886Z,4.95
2023-04-26T20:48:19.731Z,6.20
2023-04-26T20:50:47.580Z,7.13
2023-04-26T20:53:15.611Z,10.20
2023-04-26T20:55:44.761Z,6.85
2023-04-26T20:58:12.755Z,5.60
2023-04-26T21:00:42.217Z,5.63
2023-04-26T21:03:10.129Z,8.77
2023-04-26T21:05:38.091Z,6.65
2023-04-26T21:08:06.323Z,5.43
2023-04-26T21:10:34.092Z,6.75
2023-04-26T21:13:04.065Z,3.80
2023-04-26T21:15:32.632Z,5.72
2023-04-26T21:18:00.497Z,7.90
2023-04-26T21:20:28.434Z,5.72
2023-04-26T21:22:56.135Z,6.60
2023-04-26T21:25:23.893Z,4.32
2023-04-26T21:27:51.704Z,5.95
2023-04-26T21:30:21.231Z,8.20
2023-04-26T21:32:49.023Z,5.85
2023-04-26T21:35:16.806Z,5.60
2023-04-26T21:37:44.664Z,8.50
2023-04-26T21:40:13.508Z,3.58
2023-04-26T21:42:44.573Z,9.57
2023-04-26T21:45:17.082Z,6.07
2023-04-26T21:47:46.291Z,6.07
2023-04-26T21:50:14.705Z,5.15
2023-04-26T21:52:43.678Z,8.38
2023-04-26T21:55:11.761Z,7.70
2023-04-26T21:57:39.547Z,4.15
2023-04-26T22:00:11.805Z,14.73
2023-04-26T22:02:40.283Z,10.60
2023-04-26T22:05:09.766Z,7.00
2023-04-26T22:07:37.756Z,11.32
2023-04-26T22:10:06.025Z,4.03
2023-04-26T22:12:33.782Z,9.77
2023-04-26T22:15:01.781Z,7.85
2023-04-26T22:17:29.595Z,8.05
2023-04-26T22:19:57.413Z,6.95
2023-04-26T22:22:26.573Z,9.70
2023-04-26T22:24:54.429Z,6.35
2023-04-26T22:27:22.113Z,8.02
2023-04-26T22:29:49.866Z,10.73
2023-04-26T22:32:17.617Z,5.03
2023-04-26T22:34:45.456Z,7.18
2023-04-26T22:37:20.252Z,7.35
2023-04-26T22:39:52.710Z,7.07
2023-04-26T22:42:20.675Z,5.00
2023-04-26T22:44:48.478Z,5.60
2023-04-26T22:47:18.153Z,4.45
2023-04-26T22:49:46.410Z,4.97
2023-04-26T22:52:20.359Z,7.15
2023-04-26T22:55:00.992Z,7.82
2023-04-26T22:57:29.894Z,6.30
2023-04-26T22:59:58.232Z,10.57
2023-04-26T23:02:26.416Z,10.80
2023-04-26T23:04:54.370Z,6.57
2023-04-26T23:07:22.359Z,6.00
2023-04-26T23:09:50.362Z,13.18
2023-04-26T23:12:20.372Z,7.80
2023-04-26T23:14:48.748Z,4.45
2023-04-26T23:17:16.786Z,4.93
2023-04-26T23:19:44.560Z,7.00
2023-04-26T23:22:12.358Z,6.72
2023-04-26T23:24:40.169Z,7.03
2023-04-26T23:27:07.877Z,7.25
2023-04-26T23:29:37.092Z,8.57
2023-04-26T23:32:05.089Z,5.25
2023-04-26T23:34:32.928Z,7.07
2023-04-26T23:37:07.140Z,6.97
2023-04-26T23:39:36.350Z,9.48
2023-04-26T23:42:04.766Z,7.22
2023-04-26T23:44:32.610Z,9.13
2023-04-26T23:47:01.713Z,11.45
2023-04-26T23:49:29.406Z,12.43
2023-04-26T23:51:57.195Z,16.10
2023-04-26T23:54:25.012Z,14.50
2023-04-26T23:56:52.778Z,16.08
2023-04-26T23:59:20.755Z,12.55
